Box Emma — V7WY6 — position and weather

sailwx.info

Track history (hours):
 
Tides and Currents Weather Stations Pressure Air Temp Water Temp Dewpoint Dewpoint Depression Visibility Wind Speed Wind Dir Waves Ship Positions

Box Emma

Last reported at 2015-Mar-27 10:27 UTC. Time now 2015-Apr-01 09:29 UTC.
Position N 39°57' E 013°35'.

Length 294 m; draft 11.5 m.

Type: Ship (hazmat cat A). MMSI: 538004424.

Date/timePositionNaut miles runAvg speedWind from/ knotsBaromVisibWave heightAir tempDewpointWater temp
2015-Mar-27 10:27N 39°57' E 013°35'2216.2
2015-Mar-27 09:06N 40°11' E 013°13'2616.6
2015-Mar-27 07:31N 40°28' E 012°47'22616.2
2015-Mar-26 17:34N 43°17' E 009°25'1817.6
2015-Mar-26 16:34N 43°33' E 009°15'1817.7
2015-Mar-26 15:34N 43°49' E 009°04'1717.3
2015-Mar-26 14:34N 44°05' E 008°54'1717.1
2015-Mar-26 13:34N 44°20' E 008°44'5 5.0
2015-Mar-26 12:28N 44°25' E 008°47'0 0.0
2015-Mar-26 11:33N 44°25' E 008°47'0 0.0
2015-Mar-26 10:33N 44°25' E 008°47'0 0.0
2015-Mar-26 09:32N 44°25' E 008°47'0 0.0
2015-Mar-26 08:32N 44°25' E 008°47'0 0.0
2015-Mar-26 07:32N 44°25' E 008°47'0 0.0
2015-Mar-26 06:31N 44°25' E 008°47'0 0.0
2015-Mar-26 05:31N 44°25' E 008°47'0 0.0
2015-Mar-26 04:33N 44°25' E 008°47'0 0.0
2015-Mar-26 03:30N 44°25' E 008°47'0 0.0
2015-Mar-26 02:29N 44°25' E 008°47'0 0.0
2015-Mar-26 01:29N 44°25' E 008°47'0 0.0
2015-Mar-26 00:32N 44°25' E 008°47'0 0.0
2015-Mar-25 23:28N 44°25' E 008°47'0 0.0
2015-Mar-25 22:16N 44°25' E 008°47'0 0.0
2015-Mar-25 21:33N 44°25' E 008°47'0 0.0
2015-Mar-25 20:33N 44°25' E 008°47'0 0.0
2015-Mar-25 19:32N 44°25' E 008°47'0 0.0
2015-Mar-25 18:32N 44°25' E 008°47'0 0.0
2015-Mar-25 17:28N 44°25' E 008°47'0 0.0
2015-Mar-25 16:31N 44°25' E 008°47'0 0.0
2015-Mar-25 15:31N 44°25' E 008°47'0 0.0
2015-Mar-25 14:30N 44°25' E 008°47'0 0.0
2015-Mar-25 13:33N 44°25' E 008°47'0 0.0
2015-Mar-25 12:29N 44°25' E 008°47'0 0.0
2015-Mar-25 11:32N 44°25' E 008°47'0 0.3
2015-Mar-25 10:33N 44°25' E 008°47'8 7.5
2015-Mar-25 09:33N 44°19' E 008°42'1717.0
2015-Mar-25 08:33N 44°04' E 008°30'1716.6
2015-Mar-25 07:33N 43°50' E 008°17'3115.3
2015-Mar-25 05:33N 43°30' E 007°46'1615.1
2015-Mar-25 04:29N 43°19' E 007°29'1415.2
2015-Mar-25 03:33N 43°10' E 007°14'1515.3
2015-Mar-25 02:33N 42°59' E 006°59'1515.0
2015-Mar-25 01:34N 42°50' E 006°43'9815.4
2015-Mar-24 19:11N 41°45' E 005°03'1114.8
2015-Mar-24 18:28N 41°38' E 004°52'1314.5
2015-Mar-24 17:33N 41°30' E 004°39'1915.4
2015-Mar-24 16:21N 41°17' E 004°20'3014.9
2015-Mar-24 14:19N 40°57' E 003°50'1315.2
2015-Mar-24 13:27N 40°49' E 003°37'1614.6
2015-Mar-24 12:23N 40°39' E 003°22'1315.5
2015-Mar-24 11:33N 40°30' E 003°09'1615.6
2015-Mar-24 10:33N 40°20' E 002°53'1615.5
2015-Mar-24 09:33N 40°10' E 002°38'1919.0
2015-Mar-24 08:33N 39°57' E 002°19'2019.9
2015-Mar-24 07:33N 39°44' E 001°60'1717.3
2015-Mar-24 06:33N 39°33' E 001°43'1515.4
2015-Mar-24 05:33N 39°23' E 001°28'1515.0
2015-Mar-24 04:33N 39°13' E 001°13'1515.3
2015-Mar-24 03:33N 39°03' E 000°58'8914.9
2015-Mar-23 21:33N 37°53' W 000°14'1515.2
2015-Mar-23 20:33N 37°41' W 000°24'1514.8
2015-Mar-23 19:34N 37°30' W 000°36'1615.1
2015-Mar-23 18:31N 37°19' W 000°51'1515.4
2015-Mar-23 17:33N 37°09' W 001°05'20914.5
2015-Mar-23 03:07N 36°00' W 005°11'916.2
2015-Mar-23 02:34N 35°58' W 005°22'22913.5
2015-Mar-22 09:33N 37°28' W 009°45'1515.5
2015-Mar-22 08:33N 37°43' W 009°50'1615.7
2015-Mar-22 07:32N 37°59' W 009°54'1515.3
2015-Mar-22 06:33N 38°13' W 009°59'1515.1
2015-Mar-22 05:33N 38°28' W 010°03'1615.4
2015-Mar-22 04:32N 38°43' W 010°06'1815.6
2015-Mar-22 03:21N 39°02' W 010°08'1414.5
2015-Mar-22 02:25N 39°15' W 010°06'1915.3
2015-Mar-22 01:11N 39°34' W 010°07'69714.3
2015-Mar-20 00:32N 49°58' W 002°50'8510.2
2015-Mar-19 16:13N 49°43' W 000°40'913.1
2015-Mar-19 15:33N 49°38' W 000°30'1313.2
2015-Mar-19 14:34N 49°33' W 000°11'1212.2
2015-Mar-19 13:34N 49°28' E 000°06'3 2.6
2015-Mar-19 12:32N 49°27' E 000°10'0 0.0
2015-Mar-19 11:32N 49°27' E 000°10'0 0.0
2015-Mar-19 10:32N 49°27' E 000°10'0 0.0
2015-Mar-19 09:31N 49°27' E 000°10'0 0.0
2015-Mar-19 08:31N 49°27' E 000°10'0 0.0
2015-Mar-19 07:33N 49°27' E 000°10'0 0.0
2015-Mar-19 06:33N 49°27' E 000°10'0 0.0
2015-Mar-19 05:32N 49°27' E 000°10'0 0.0
2015-Mar-19 04:32N 49°27' E 000°10'0 0.0
2015-Mar-19 03:32N 49°27' E 000°10'0 0.0
2015-Mar-19 02:31N 49°27' E 000°10'0 0.0
2015-Mar-19 01:31N 49°27' E 000°10'0 0.0
2015-Mar-19 00:33N 49°27' E 000°10'0 0.0
2015-Mar-18 23:33N 49°27' E 000°10'0 0.0
2015-Mar-18 22:32N 49°27' E 000°10'0 0.0
2015-Mar-18 21:32N 49°27' E 000°10'1 1.0
2015-Mar-18 20:33N 49°27' E 000°09'1010.3
2015-Mar-18 19:33N 49°31' W 000°06'9 9.5
2015-Mar-18 18:33N 49°35' W 000°19'2 2.2
2015-Mar-18 17:33N 49°37' W 000°20'2 1.5
2015-Mar-18 16:33N 49°39' W 000°19'2 2.2
2015-Mar-18 15:33N 49°41' W 000°17'9 9.1
2015-Mar-18 14:33N 49°50' W 000°16'11 9.3
2015-Mar-18 13:24N 50°00' W 000°19'39 9.6
2015-Mar-18 09:18N 50°32' E 000°17'912.0
2015-Mar-18 08:33N 50°34' E 000°31'1111.3
2015-Mar-18 07:33N 50°40' E 000°46'1211.9
2015-Mar-18 06:33N 50°47' E 001°02'1713.6
2015-Mar-18 05:20N 50°58' E 001°22'1215.1
2015-Mar-18 04:34N 51°06' E 001°34'1414.3
2015-Mar-18 03:33N 51°17' E 001°48'1312.6
2015-Mar-18 02:34N 51°28' E 001°59'1211.8
2015-Mar-18 01:33N 51°37' E 002°11'1111.3
2015-Mar-18 00:34N 51°45' E 002°24'1111.0
2015-Mar-17 23:33N 51°53' E 002°36'1111.2
2015-Mar-17 22:34N 52°01' E 002°49'1211.7
2015-Mar-17 21:33N 52°02' E 003°08'1312.4
2015-Mar-17 20:33N 52°03' E 003°28'1312.9
2015-Mar-17 19:34N 52°03' E 003°49'1212.4
2015-Mar-17 18:33N 51°58' E 004°08'9 9.3
2015-Mar-17 17:33N 51°54' E 004°21'2 2.4
2015-Mar-17 16:32N 51°53' E 004°25'0 0.0
2015-Mar-17 15:32N 51°53' E 004°25'0 0.0
2015-Mar-17 14:31N 51°53' E 004°25'0 0.0
2015-Mar-17 13:31N 51°53' E 004°25'0 0.0
2015-Mar-17 12:31N 51°53' E 004°25'0 0.0
2015-Mar-17 11:33N 51°53' E 004°25'0 0.0
2015-Mar-17 10:33N 51°53' E 004°25'  
Track history (hours):
 
Tides and Currents Weather Stations Pressure Air Temp Water Temp Dewpoint Dewpoint Depression Visibility Wind Speed Wind Dir Waves Ship Positions

Box Emma

Last reported at 2015-Mar-27 10:27 UTC. Time now 2015-Apr-01 09:29 UTC.
Position N 39°57' E 013°35'.

Length 294 m; draft 11.5 m.

Type: Ship (hazmat cat A). MMSI: 538004424.

Date/timePositionNaut miles runAvg speedWind from/ knotsBaromVisibWave heightAir tempDewpointWater temp
2015-Mar-27 10:27N 39°57' E 013°35'2216.2
2015-Mar-27 09:06N 40°11' E 013°13'2616.6
2015-Mar-27 07:31N 40°28' E 012°47'22616.2
2015-Mar-26 17:34N 43°17' E 009°25'1817.6
2015-Mar-26 16:34N 43°33' E 009°15'1817.7
2015-Mar-26 15:34N 43°49' E 009°04'1717.3
2015-Mar-26 14:34N 44°05' E 008°54'1717.1
2015-Mar-26 13:34N 44°20' E 008°44'5 5.0
2015-Mar-26 12:28N 44°25' E 008°47'0 0.0
2015-Mar-26 11:33N 44°25' E 008°47'0 0.0
2015-Mar-26 10:33N 44°25' E 008°47'0 0.0
2015-Mar-26 09:32N 44°25' E 008°47'0 0.0
2015-Mar-26 08:32N 44°25' E 008°47'0 0.0
2015-Mar-26 07:32N 44°25' E 008°47'0 0.0
2015-Mar-26 06:31N 44°25' E 008°47'0 0.0
2015-Mar-26 05:31N 44°25' E 008°47'0 0.0
2015-Mar-26 04:33N 44°25' E 008°47'0 0.0
2015-Mar-26 03:30N 44°25' E 008°47'0 0.0
2015-Mar-26 02:29N 44°25' E 008°47'0 0.0
2015-Mar-26 01:29N 44°25' E 008°47'0 0.0
2015-Mar-26 00:32N 44°25' E 008°47'0 0.0
2015-Mar-25 23:28N 44°25' E 008°47'0 0.0
2015-Mar-25 22:16N 44°25' E 008°47'0 0.0
2015-Mar-25 21:33N 44°25' E 008°47'0 0.0
2015-Mar-25 20:33N 44°25' E 008°47'0 0.0
2015-Mar-25 19:32N 44°25' E 008°47'0 0.0
2015-Mar-25 18:32N 44°25' E 008°47'0 0.0
2015-Mar-25 17:28N 44°25' E 008°47'0 0.0
2015-Mar-25 16:31N 44°25' E 008°47'0 0.0
2015-Mar-25 15:31N 44°25' E 008°47'0 0.0
2015-Mar-25 14:30N 44°25' E 008°47'0 0.0
2015-Mar-25 13:33N 44°25' E 008°47'0 0.0
2015-Mar-25 12:29N 44°25' E 008°47'0 0.0
2015-Mar-25 11:32N 44°25' E 008°47'0 0.3
2015-Mar-25 10:33N 44°25' E 008°47'8 7.5
2015-Mar-25 09:33N 44°19' E 008°42'1717.0
2015-Mar-25 08:33N 44°04' E 008°30'1716.6
2015-Mar-25 07:33N 43°50' E 008°17'3115.3
2015-Mar-25 05:33N 43°30' E 007°46'1615.1
2015-Mar-25 04:29N 43°19' E 007°29'1415.2
2015-Mar-25 03:33N 43°10' E 007°14'1515.3
2015-Mar-25 02:33N 42°59' E 006°59'1515.0
2015-Mar-25 01:34N 42°50' E 006°43'9815.4
2015-Mar-24 19:11N 41°45' E 005°03'1114.8
2015-Mar-24 18:28N 41°38' E 004°52'1314.5
2015-Mar-24 17:33N 41°30' E 004°39'1915.4
2015-Mar-24 16:21N 41°17' E 004°20'3014.9
2015-Mar-24 14:19N 40°57' E 003°50'1315.2
2015-Mar-24 13:27N 40°49' E 003°37'1614.6
2015-Mar-24 12:23N 40°39' E 003°22'1315.5
2015-Mar-24 11:33N 40°30' E 003°09'1615.6
2015-Mar-24 10:33N 40°20' E 002°53'1615.5
2015-Mar-24 09:33N 40°10' E 002°38'1919.0
2015-Mar-24 08:33N 39°57' E 002°19'2019.9
2015-Mar-24 07:33N 39°44' E 001°60'1717.3
2015-Mar-24 06:33N 39°33' E 001°43'1515.4
2015-Mar-24 05:33N 39°23' E 001°28'1515.0
2015-Mar-24 04:33N 39°13' E 001°13'1515.3
2015-Mar-24 03:33N 39°03' E 000°58'8914.9
2015-Mar-23 21:33N 37°53' W 000°14'1515.2
2015-Mar-23 20:33N 37°41' W 000°24'1514.8
2015-Mar-23 19:34N 37°30' W 000°36'1615.1
2015-Mar-23 18:31N 37°19' W 000°51'1515.4
2015-Mar-23 17:33N 37°09' W 001°05'20914.5
2015-Mar-23 03:07N 36°00' W 005°11'916.2
2015-Mar-23 02:34N 35°58' W 005°22'22913.5
2015-Mar-22 09:33N 37°28' W 009°45'1515.5
2015-Mar-22 08:33N 37°43' W 009°50'1615.7
2015-Mar-22 07:32N 37°59' W 009°54'1515.3
2015-Mar-22 06:33N 38°13' W 009°59'1515.1
2015-Mar-22 05:33N 38°28' W 010°03'1615.4
2015-Mar-22 04:32N 38°43' W 010°06'1815.6
2015-Mar-22 03:21N 39°02' W 010°08'1414.5
2015-Mar-22 02:25N 39°15' W 010°06'1915.3
2015-Mar-22 01:11N 39°34' W 010°07'69714.3
2015-Mar-20 00:32N 49°58' W 002°50'8510.2
2015-Mar-19 16:13N 49°43' W 000°40'913.1
2015-Mar-19 15:33N 49°38' W 000°30'1313.2
2015-Mar-19 14:34N 49°33' W 000°11'1212.2
2015-Mar-19 13:34N 49°28' E 000°06'3 2.6
2015-Mar-19 12:32N 49°27' E 000°10'0 0.0
2015-Mar-19 11:32N 49°27' E 000°10'0 0.0
2015-Mar-19 10:32N 49°27' E 000°10'0 0.0
2015-Mar-19 09:31N 49°27' E 000°10'0 0.0
2015-Mar-19 08:31N 49°27' E 000°10'0 0.0
2015-Mar-19 07:33N 49°27' E 000°10'0 0.0
2015-Mar-19 06:33N 49°27' E 000°10'0 0.0
2015-Mar-19 05:32N 49°27' E 000°10'0 0.0
2015-Mar-19 04:32N 49°27' E 000°10'0 0.0
2015-Mar-19 03:32N 49°27' E 000°10'0 0.0
2015-Mar-19 02:31N 49°27' E 000°10'0 0.0
2015-Mar-19 01:31N 49°27' E 000°10'0 0.0
2015-Mar-19 00:33N 49°27' E 000°10'0 0.0
2015-Mar-18 23:33N 49°27' E 000°10'0 0.0
2015-Mar-18 22:32N 49°27' E 000°10'0 0.0
2015-Mar-18 21:32N 49°27' E 000°10'1 1.0
2015-Mar-18 20:33N 49°27' E 000°09'1010.3
2015-Mar-18 19:33N 49°31' W 000°06'9 9.5
2015-Mar-18 18:33N 49°35' W 000°19'2 2.2
2015-Mar-18 17:33N 49°37' W 000°20'2 1.5
2015-Mar-18 16:33N 49°39' W 000°19'2 2.2
2015-Mar-18 15:33N 49°41' W 000°17'9 9.1
2015-Mar-18 14:33N 49°50' W 000°16'11 9.3
2015-Mar-18 13:24N 50°00' W 000°19'39 9.6
2015-Mar-18 09:18N 50°32' E 000°17'912.0
2015-Mar-18 08:33N 50°34' E 000°31'1111.3
2015-Mar-18 07:33N 50°40' E 000°46'1211.9
2015-Mar-18 06:33N 50°47' E 001°02'1713.6
2015-Mar-18 05:20N 50°58' E 001°22'1215.1
2015-Mar-18 04:34N 51°06' E 001°34'1414.3
2015-Mar-18 03:33N 51°17' E 001°48'1312.6
2015-Mar-18 02:34N 51°28' E 001°59'1211.8
2015-Mar-18 01:33N 51°37' E 002°11'1111.3
2015-Mar-18 00:34N 51°45' E 002°24'1111.0
2015-Mar-17 23:33N 51°53' E 002°36'1111.2
2015-Mar-17 22:34N 52°01' E 002°49'1211.7
2015-Mar-17 21:33N 52°02' E 003°08'1312.4
2015-Mar-17 20:33N 52°03' E 003°28'1312.9
2015-Mar-17 19:34N 52°03' E 003°49'1212.4
2015-Mar-17 18:33N 51°58' E 004°08'9 9.3
2015-Mar-17 17:33N 51°54' E 004°21'2 2.4
2015-Mar-17 16:32N 51°53' E 004°25'0 0.0
2015-Mar-17 15:32N 51°53' E 004°25'0 0.0
2015-Mar-17 14:31N 51°53' E 004°25'0 0.0
2015-Mar-17 13:31N 51°53' E 004°25'0 0.0
2015-Mar-17 12:31N 51°53' E 004°25'0 0.0
2015-Mar-17 11:33N 51°53' E 004°25'0 0.0
2015-Mar-17 10:33N 51°53' E 004°25'  

Dump ship's entire track history